Time;durP1;ratioP1;P1;durP2;ratioP2;P2;SDS_P1;SDS_P2;PMS_P1;PMS_P2;Temp;Humidity;BMP_temperature;BMP_pressure;BME280_temperature;BME280_humidity;BME280_pressure;Samples;Min_cycle;Max_cycle;Signal;HPM_P1;HPM_P2
2022/08/10 00:00:46;;;;;;;2.20;2.00;;;24.50;45.60;;;;;;5054578;28;20203;-72
2022/08/10 00:03:15;;;;;;;2.33;1.77;;;24.50;45.50;;;;;;5037877;28;20202;-72
2022/08/10 00:05:41;;;;;;;2.00;1.90;;;24.50;46.10;;;;;;5036522;28;20219;-72
2022/08/10 00:08:08;;;;;;;2.42;1.80;;;24.40;45.40;;;;;;5054316;28;20194;-72
2022/08/10 00:10:35;;;;;;;2.08;1.88;;;24.50;45.50;;;;;;5054473;28;20211;-71
2022/08/10 00:13:02;;;;;;;2.53;1.80;;;24.40;45.40;;;;;;5054461;28;20196;-72
2022/08/10 00:15:31;;;;;;;1.70;1.60;;;24.50;45.50;;;;;;5036386;28;20215;-72
2022/08/10 00:17:58;;;;;;;1.55;1.45;;;24.40;45.50;;;;;;5037121;28;20206;-72
2022/08/10 00:20:26;;;;;;;2.13;1.92;;;24.40;45.50;;;;;;5036291;28;20202;-72
2022/08/10 00:22:53;;;;;;;1.80;1.70;;;24.50;45.50;;;;;;5054361;28;20183;-71
2022/08/10 00:25:20;;;;;;;1.80;1.70;;;24.40;45.50;;;;;;5036244;28;20614;-72
2022/08/10 00:27:47;;;;;;;1.90;1.75;;;24.40;45.50;;;;;;5053940;28;20299;-71
2022/08/10 00:30:14;;;;;;;2.17;1.90;;;24.40;45.50;;;;;;5053809;28;20219;-72
2022/08/10 00:32:41;;;;;;;2.10;1.90;;;24.40;45.50;;;;;;5054341;28;20194;-72
2022/08/10 00:35:09;;;;;;;1.80;1.70;;;24.40;45.50;;;;;;5036044;28;20211;-73
2022/08/10 00:37:37;;;;;;;1.80;1.70;;;24.40;46.20;;;;;;5053978;28;20191;-72
2022/08/10 00:40:05;;;;;;;1.75;1.65;;;24.40;45.50;;;;;;5035399;28;20191;-72
2022/08/10 00:42:32;;;;;;;2.20;2.00;;;24.40;45.60;;;;;;5053899;28;20215;-72
2022/08/10 00:44:59;;;;;;;2.00;1.80;;;24.40;45.50;;;;;;5036381;28;20201;-72
2022/08/10 00:47:26;;;;;;;1.60;1.50;;;24.40;45.60;;;;;;5035892;28;20195;-71
2022/08/10 00:49:53;;;;;;;1.90;1.80;;;24.30;45.50;;;;;;5035883;28;20234;-71
2022/08/10 00:52:21;;;;;;;2.17;1.90;;;24.30;45.50;;;;;;5039776;28;20191;-72
2022/08/10 00:54:49;;;;;;;2.22;1.70;;;24.30;45.50;;;;;;5058377;28;20726;-71
2022/08/10 00:57:16;;;;;;;1.77;1.67;;;24.30;45.50;;;;;;5054100;28;20290;-71
2022/08/10 00:59:44;;;;;;;2.17;1.90;;;24.30;45.60;;;;;;5036052;28;20290;-72
2022/08/10 01:02:11;;;;;;;1.60;1.50;;;24.30;45.60;;;;;;5035726;28;20199;-71
2022/08/10 01:04:38;;;;;;;2.17;1.88;;;24.30;45.60;;;;;;5035732;28;20203;-71
2022/08/10 01:07:19;;;;;;;1.75;1.65;;;24.30;45.70;;;;;;5035446;28;20200;-71
2022/08/10 01:09:55;;;;;;;1.80;1.70;;;24.30;45.70;;;;;;5035557;28;20195;-71
2022/08/10 01:12:28;;;;;;;2.00;1.80;;;24.30;45.70;;;;;;5035544;28;20195;-71
2022/08/10 01:14:59;;;;;;;1.70;1.60;;;24.30;45.70;;;;;;5053265;28;20195;-72
2022/08/10 01:17:30;;;;;;;1.92;1.73;;;24.30;45.80;;;;;;5035562;28;20191;-71
2022/08/10 01:20:02;;;;;;;2.42;1.73;;;24.30;45.80;;;;;;5053524;28;20266;-72
2022/08/10 01:22:45;;;;;;;1.75;1.65;;;24.30;45.80;;;;;;5035350;28;20202;-72
2022/08/10 01:25:36;;;;;;;1.50;1.40;;;24.20;45.70;;;;;;5035448;28;20230;-71
2022/08/10 01:28:08;;;;;;;1.70;1.60;;;24.20;45.80;;;;;;5035317;28;20207;-71
2022/08/10 01:30:36;;;;;;;1.90;1.80;;;24.20;45.80;;;;;;5053131;28;20229;-71
2022/08/10 01:33:05;;;;;;;2.20;1.80;;;24.30;45.90;;;;;;5053190;28;20190;-72
2022/08/10 01:35:35;;;;;;;1.80;1.70;;;24.20;45.80;;;;;;5052955;28;20217;-72
2022/08/10 01:38:05;;;;;;;1.80;1.70;;;24.20;45.90;;;;;;5053639;28;20212;-72
2022/08/10 01:40:34;;;;;;;2.42;1.75;;;24.20;45.90;;;;;;5035216;28;20196;-71
2022/08/10 01:43:03;;;;;;;2.00;1.90;;;24.20;45.90;;;;;;5035410;28;20660;-72
2022/08/10 01:45:30;;;;;;;1.95;1.77;;;24.20;45.90;;;;;;5053275;28;20206;-71
2022/08/10 01:50:45;;;;;;;1.75;1.65;;;24.20;46.00;;;;;;5054963;28;20195;-71
2022/08/10 01:53:15;;;;;;;1.63;1.52;;;24.20;46.10;;;;;;5039226;28;20195;-71
2022/08/10 01:55:42;;;;;;;1.75;1.65;;;24.20;46.10;;;;;;5038840;28;20223;-71
2022/08/10 01:58:09;;;;;;;1.75;1.65;;;24.20;46.10;;;;;;5057053;28;20271;-71
2022/08/10 02:00:37;;;;;;;1.90;1.60;;;24.10;46.00;;;;;;5038952;28;20195;-71
2022/08/10 02:03:07;;;;;;;1.67;1.58;;;24.20;46.10;;;;;;5038885;28;20202;-71
2022/08/10 02:05:34;;;;;;;1.80;1.67;;;24.20;46.10;;;;;;5038621;28;20254;-71
2022/08/10 02:08:01;;;;;;;1.58;1.48;;;24.20;46.10;;;;;;5038809;28;20206;-71
2022/08/10 02:10:28;;;;;;;1.88;1.40;;;24.10;46.10;;;;;;5038609;28;20215;-72
2022/08/10 02:12:56;;;;;;;1.73;1.63;;;24.10;46.10;;;;;;5056855;28;20274;-71
2022/08/10 02:15:23;;;;;;;1.67;1.55;;;24.10;46.10;;;;;;5038696;28;20219;-72
2022/08/10 02:17:52;;;;;;;1.75;1.65;;;24.10;46.20;;;;;;5038697;28;20200;-71
2022/08/10 02:20:22;;;;;;;1.70;1.60;;;24.10;46.20;;;;;;5038560;28;20287;-71
2022/08/10 02:22:49;;;;;;;1.67;1.58;;;24.10;46.20;;;;;;5038669;28;20203;-71
2022/08/10 02:25:16;;;;;;;1.80;1.70;;;24.10;46.20;;;;;;5038522;28;20219;-71
2022/08/10 02:27:43;;;;;;;1.60;1.50;;;24.10;46.30;;;;;;5039128;28;20205;-71
2022/08/10 02:30:11;;;;;;;1.58;1.48;;;24.10;46.20;;;;;;5038330;28;20205;-72
2022/08/10 02:32:38;;;;;;;1.70;1.60;;;24.10;46.30;;;;;;5038437;28;20577;-72
2022/08/10 02:35:07;;;;;;;1.63;1.52;;;24.00;46.20;;;;;;5038257;28;20222;-72
2022/08/10 02:37:36;;;;;;;1.70;1.60;;;24.00;46.20;;;;;;5038747;28;20199;-72
2022/08/10 02:40:04;;;;;;;1.50;1.40;;;24.00;46.30;;;;;;5038270;28;20286;-72
2022/08/10 02:42:33;;;;;;;1.55;1.45;;;24.00;46.30;;;;;;5038265;28;20581;-73
2022/08/10 02:47:38;;;;;;;1.52;1.42;;;24.00;46.40;;;;;;5054497;28;20260;-68
2022/08/10 02:50:08;;;;;;;1.98;1.80;;;24.00;46.40;;;;;;5038138;28;20196;-68
2022/08/10 02:52:40;;;;;;;1.58;1.48;;;24.00;46.40;;;;;;5037975;28;20187;-68
2022/08/10 02:55:13;;;;;;;1.92;1.80;;;24.00;46.40;;;;;;5038163;28;20222;-68
2022/08/10 02:57:40;;;;;;;2.13;1.80;;;24.00;46.50;;;;;;5054489;28;20575;-68
2022/08/10 03:00:09;;;;;;;1.63;1.52;;;24.00;46.50;;;;;;5054398;28;20296;-68
2022/08/10 03:02:37;;;;;;;1.70;1.60;;;24.00;46.50;;;;;;5055182;28;20192;-68
2022/08/10 03:05:06;;;;;;;1.58;1.40;;;23.90;46.50;;;;;;5055465;28;20269;-68
2022/08/10 03:07:35;;;;;;;1.83;1.73;;;24.00;46.60;;;;;;5055507;28;20271;-68
2022/08/10 03:10:03;;;;;;;1.77;1.67;;;24.00;46.60;;;;;;5054141;28;20234;-68
2022/08/10 03:12:30;;;;;;;1.63;1.52;;;23.90;46.50;;;;;;5054056;28;20222;-68
2022/08/10 03:14:57;;;;;;;1.73;1.63;;;23.90;46.50;;;;;;5054112;28;20207;-68
2022/08/10 03:17:24;;;;;;;2.08;1.77;;;23.90;46.50;;;;;;5054076;28;20560;-68
2022/08/10 03:19:51;;;;;;;2.30;1.75;;;23.90;46.60;;;;;;5053922;28;20198;-68
2022/08/10 03:22:18;;;;;;;1.67;1.58;;;23.90;46.60;;;;;;5053986;28;20199;-68
2022/08/10 03:24:47;;;;;;;2.00;1.88;;;23.90;46.60;;;;;;5053934;28;20204;-68
2022/08/10 03:27:14;;;;;;;1.80;1.70;;;24.00;46.70;;;;;;5053940;28;20199;-67
2022/08/10 03:29:41;;;;;;;1.60;1.50;;;23.90;46.60;;;;;;5053871;28;20200;-68
2022/08/10 03:32:09;;;;;;;2.17;1.80;;;24.00;46.60;;;;;;5054867;28;20199;-68
2022/08/10 03:34:36;;;;;;;1.67;1.58;;;24.00;46.60;;;;;;5053742;28;20659;-68
2022/08/10 03:37:03;;;;;;;1.70;1.60;;;24.00;46.50;;;;;;5054772;28;20715;-68
2022/08/10 03:39:31;;;;;;;1.88;1.77;;;24.00;46.40;;;;;;5054879;28;20188;-68
2022/08/10 03:42:00;;;;;;;1.90;1.80;;;24.00;46.40;;;;;;5054194;28;20239;-68
2022/08/10 03:44:29;;;;;;;1.70;1.60;;;24.10;46.40;;;;;;5053720;28;20196;-68
2022/08/10 03:46:57;;;;;;;1.52;1.42;;;24.10;46.40;;;;;;5053221;28;20233;-68
2022/08/10 03:49:24;;;;;;;1.70;1.50;;;24.10;46.30;;;;;;5054667;28;20237;-68
2022/08/10 03:51:51;;;;;;;1.60;1.50;;;24.10;46.30;;;;;;5054555;28;20218;-68
2022/08/10 03:54:19;;;;;;;1.63;1.52;;;24.10;46.20;;;;;;5054603;28;20206;-68
2022/08/10 03:56:47;;;;;;;1.83;1.63;;;24.10;45.70;;;;;;5053283;28;20273;-68
2022/08/10 03:59:16;;;;;;;1.60;1.50;;;24.10;45.50;;;;;;5054483;28;20223;-68
2022/08/10 04:01:42;;;;;;;1.88;1.70;;;24.10;46.10;;;;;;5053093;28;20196;-68
2022/08/10 04:04:10;;;;;;;2.00;1.70;;;24.10;45.40;;;;;;5053233;28;20207;-68
2022/08/10 04:06:37;;;;;;;1.95;1.80;;;24.10;45.40;;;;;;5053133;28;20563;-68
2022/08/10 04:09:04;;;;;;;2.78;1.77;;;24.00;45.20;;;;;;5053002;28;20717;-68
2022/08/10 04:11:31;;;;;;;2.17;1.85;;;24.00;45.30;;;;;;5053139;28;20644;-68
2022/08/10 04:13:58;;;;;;;2.00;1.80;;;24.00;45.20;;;;;;5053438;28;20197;-68
2022/08/10 04:16:27;;;;;;;1.80;1.70;;;23.90;45.90;;;;;;5053154;28;20215;-68
2022/08/10 04:18:54;;;;;;;1.92;1.83;;;23.90;46.00;;;;;;5053322;28;20265;-68
2022/08/10 04:21:23;;;;;;;1.83;1.70;;;24.00;46.70;;;;;;5053199;28;20193;-68
2022/08/10 04:23:50;;;;;;;2.38;1.90;;;23.90;46.70;;;;;;5054792;28;20191;-68
2022/08/10 04:26:17;;;;;;;1.90;1.80;;;23.90;46.40;;;;;;5053797;28;20640;-68
2022/08/10 04:28:44;;;;;;;2.80;1.90;;;23.90;46.30;;;;;;5053086;28;20547;-68
2022/08/10 04:31:13;;;;;;;3.42;2.40;;;23.90;46.40;;;;;;5054260;28;20218;-68
2022/08/10 04:33:43;;;;;;;2.50;2.30;;;23.90;46.30;;;;;;5052944;28;20199;-68
2022/08/10 04:36:10;;;;;;;3.33;2.40;;;23.90;46.10;;;;;;5052803;28;20211;-68
2022/08/10 04:38:37;;;;;;;3.00;2.60;;;23.80;46.00;;;;;;5052572;28;20199;-68
2022/08/10 04:41:04;;;;;;;2.95;2.55;;;23.80;46.70;;;;;;5052842;28;20656;-69
2022/08/10 04:43:31;;;;;;;2.90;2.50;;;23.80;46.60;;;;;;5052743;28;20195;-69
2022/08/10 04:45:58;;;;;;;2.67;2.28;;;23.80;46.60;;;;;;5052372;28;20277;-69
2022/08/10 04:48:25;;;;;;;2.80;2.60;;;23.80;46.60;;;;;;5052363;28;20211;-68
2022/08/10 04:50:53;;;;;;;2.67;2.40;;;23.80;46.60;;;;;;5053640;28;20203;-68
2022/08/10 04:53:21;;;;;;;4.10;2.60;;;23.80;46.60;;;;;;5052529;28;20285;-68
2022/08/10 04:55:48;;;;;;;2.47;2.28;;;23.80;46.70;;;;;;5052245;28;20226;-68
2022/08/10 04:58:15;;;;;;;2.50;2.30;;;23.80;46.60;;;;;;5052194;28;20290;-69
2022/08/10 05:00:42;;;;;;;2.90;2.65;;;23.80;46.60;;;;;;5052202;28;20203;-68
2022/08/10 05:03:09;;;;;;;2.28;2.08;;;23.90;46.60;;;;;;5053397;28;20191;-68
2022/08/10 05:05:36;;;;;;;3.10;2.72;;;23.90;46.60;;;;;;5052054;28;20219;-68
2022/08/10 05:08:04;;;;;;;2.78;2.42;;;23.90;46.60;;;;;;5052089;28;20294;-68
2022/08/10 05:10:32;;;;;;;3.00;2.70;;;23.90;46.40;;;;;;5052128;28;20260;-68
2022/08/10 05:12:59;;;;;;;3.05;2.70;;;24.00;46.30;;;;;;5053575;28;20686;-68
2022/08/10 05:15:26;;;;;;;3.20;2.90;;;24.00;46.00;;;;;;5052066;28;20270;-68
2022/08/10 05:17:53;;;;;;;3.10;2.80;;;24.20;45.70;;;;;;5052021;28;20709;-68
2022/08/10 05:20:20;;;;;;;3.55;3.25;;;24.40;45.10;;;;;;5052080;28;20206;-69
2022/08/10 05:22:47;;;;;;;3.38;3.05;;;24.70;44.80;;;;;;5053204;28;20660;-68
2022/08/10 05:25:17;;;;;;;4.55;3.20;;;24.90;44.30;;;;;;5053218;28;20219;-68
2022/08/10 05:27:44;;;;;;;4.13;3.22;;;25.10;43.80;;;;;;5056010;28;20195;-68
2022/08/10 05:30:13;;;;;;;3.85;3.05;;;25.30;43.30;;;;;;5056193;28;20205;-69
2022/08/10 05:32:40;;;;;;;3.67;3.17;;;25.60;43.00;;;;;;5056111;28;20222;-69
2022/08/10 05:35:07;;;;;;;5.75;4.50;;;25.80;42.80;;;;;;5056179;28;20211;-69
2022/08/10 05:37:34;;;;;;;6.95;5.82;;;25.90;42.40;;;;;;5057203;28;20274;-69
2022/08/10 05:40:02;;;;;;;10.00;6.30;;;25.90;42.30;;;;;;5056446;28;20222;-68
2022/08/10 05:42:31;;;;;;;8.38;6.60;;;25.80;42.50;;;;;;5057316;28;20189;-70
2022/08/10 05:44:57;;;;;;;10.00;6.37;;;25.80;42.70;;;;;;5055310;28;20796;-69
2022/08/10 05:47:24;;;;;;;8.77;5.70;;;25.80;42.70;;;;;;5056095;28;20566;-68
2022/08/10 05:49:52;;;;;;;8.90;6.05;;;25.80;42.50;;;;;;5055631;28;20225;-68
2022/08/10 05:52:19;;;;;;;25.65;19.13;;;25.80;42.50;;;;;;5056891;28;20223;-68
2022/08/10 05:54:47;;;;;;;17.70;12.18;;;26.00;42.10;;;;;;5055551;28;20223;-68
2022/08/10 05:57:15;;;;;;;12.35;8.82;;;26.10;42.10;;;;;;5056697;28;20199;-68
2022/08/10 05:59:46;;;;;;;10.23;7.85;;;26.20;41.80;;;;;;5055505;28;20670;-68
2022/08/10 06:02:15;;;;;;;9.73;6.65;;;26.30;41.70;;;;;;5055583;28;20199;-68
2022/08/10 06:04:42;;;;;;;8.27;5.43;;;26.40;41.50;;;;;;5055287;28;20718;-68
2022/08/10 06:07:09;;;;;;;6.78;4.80;;;26.50;41.50;;;;;;5055488;28;20192;-67
2022/08/10 06:09:36;;;;;;;4.90;4.40;;;26.50;41.40;;;;;;5056457;28;20204;-68
2022/08/10 06:12:03;;;;;;;5.95;4.68;;;26.60;41.60;;;;;;5055224;28;20222;-68
2022/08/10 06:17:16;;;;;;;7.05;4.20;;;26.70;41.20;;;;;;5056714;28;20179;-68
2022/08/10 06:19:43;;;;;;;5.70;3.78;;;26.80;41.30;;;;;;5055205;28;20201;-68
2022/08/10 06:22:10;;;;;;;5.55;3.90;;;26.90;41.40;;;;;;5056555;28;20210;-69
2022/08/10 06:24:39;;;;;;;5.03;4.13;;;26.90;41.70;;;;;;5055157;28;20196;-68
2022/08/10 06:27:06;;;;;;;7.13;4.50;;;26.90;41.60;;;;;;5056592;28;20184;-67
2022/08/10 06:29:34;;;;;;;6.60;4.40;;;27.00;41.30;;;;;;5056853;28;20607;-68
2022/08/10 06:32:02;;;;;;;6.25;4.30;;;27.10;41.30;;;;;;5056206;28;20313;-68
2022/08/10 06:34:33;;;;;;;5.38;4.20;;;27.10;41.20;;;;;;5056299;28;20198;-68
2022/08/10 06:37:01;;;;;;;6.53;4.40;;;27.10;41.40;;;;;;5054950;28;20218;-68
2022/08/10 06:39:28;;;;;;;6.75;4.10;;;27.20;41.40;;;;;;5056058;28;20678;-68
2022/08/10 06:41:58;;;;;;;6.18;4.13;;;27.20;41.30;;;;;;5055995;28;20238;-68
2022/08/10 06:44:29;;;;;;;3.92;3.42;;;27.40;40.90;;;;;;5055002;28;20191;-69
2022/08/10 06:46:57;;;;;;;5.20;3.00;;;27.50;40.50;;;;;;5054565;28;20262;-69
2022/08/10 06:49:24;;;;;;;4.03;3.03;;;27.70;40.10;;;;;;5055976;28;20266;-68
2022/08/10 06:51:54;;;;;;;5.40;2.88;;;27.70;38.80;;;;;;5054637;28;20211;-69
2022/08/10 06:54:23;;;;;;;5.13;3.20;;;27.70;38.10;;;;;;5055768;28;20655;-68
2022/08/10 06:56:51;;;;;;;3.88;2.58;;;27.80;38.70;;;;;;5054432;28;20296;-68
2022/08/10 06:59:20;;;;;;;4.32;2.30;;;27.80;38.70;;;;;;5054475;28;20273;-69
2022/08/10 07:01:49;;;;;;;4.05;2.55;;;27.90;37.80;;;;;;5054499;28;20195;-69
2022/08/10 07:04:19;;;;;;;4.05;2.42;;;27.90;38.40;;;;;;5054482;28;20195;-68
2022/08/10 07:06:46;;;;;;;2.75;2.08;;;27.80;38.70;;;;;;5054182;28;20387;-69
2022/08/10 07:09:15;;;;;;;6.35;2.20;;;27.90;37.90;;;;;;5054108;28;20206;-68
2022/08/10 07:11:43;;;;;;;2.70;2.17;;;28.00;37.40;;;;;;5054197;28;20191;-68
2022/08/10 07:14:11;;;;;;;3.50;1.85;;;27.90;36.50;;;;;;5054270;28;20281;-68
2022/08/10 07:16:39;;;;;;;2.55;1.60;;;28.00;36.90;;;;;;5054175;28;20222;-68
2022/08/10 07:21:33;;;;;;;4.20;2.30;;;28.30;36.10;;;;;;5053588;28;20680;-56
2022/08/10 07:23:59;;;;;;;3.17;2.08;;;28.40;35.80;;;;;;5054973;28;20191;-57
2022/08/10 07:26:29;;;;;;;2.53;2.00;;;28.50;35.40;;;;;;5054821;28;20284;-56
2022/08/10 07:28:56;;;;;;;2.33;2.00;;;28.60;35.30;;;;;;5054938;28;20202;-56
2022/08/10 07:31:23;;;;;;;3.17;1.80;;;28.60;35.20;;;;;;5053512;28;20199;-55
2022/08/10 07:33:50;;;;;;;4.70;2.17;;;28.60;34.90;;;;;;5053344;28;20218;-56
2022/08/10 07:36:18;;;;;;;2.22;1.90;;;28.80;34.50;;;;;;5053594;28;20734;-56
2022/08/10 07:38:45;;;;;;;2.85;2.00;;;28.80;33.90;;;;;;5053422;28;20202;-56
2022/08/10 07:41:12;;;;;;;2.17;1.90;;;28.90;33.70;;;;;;5054843;28;20722;-56
2022/08/10 07:43:42;;;;;;;2.47;1.90;;;29.00;33.60;;;;;;5054554;28;20300;-56
2022/08/10 07:46:11;;;;;;;3.65;2.03;;;29.10;33.20;;;;;;5054878;28;20245;-56
2022/08/10 07:48:40;;;;;;;2.08;1.85;;;29.20;33.70;;;;;;5054179;28;20679;-55
2022/08/10 07:51:08;;;;;;;4.38;1.90;;;29.10;33.70;;;;;;5054625;28;20226;-55
2022/08/10 07:53:37;;;;;;;2.10;1.70;;;29.20;33.40;;;;;;5054290;28;20575;-56
2022/08/10 07:56:04;;;;;;;2.25;2.00;;;29.20;32.80;;;;;;5054258;28;20210;-55
2022/08/10 07:58:34;;;;;;;3.55;1.90;;;29.20;32.80;;;;;;5054282;28;20187;-55
2022/08/10 08:01:04;;;;;;;2.78;1.80;;;29.30;33.00;;;;;;5052982;28;20253;-55
2022/08/10 08:03:31;;;;;;;1.90;1.70;;;29.30;32.70;;;;;;5054336;28;20178;-55
2022/08/10 08:05:59;;;;;;;2.75;1.90;;;29.30;32.30;;;;;;5054038;28;20218;-55
2022/08/10 08:08:26;;;;;;;3.08;1.67;;;29.30;32.50;;;;;;5054205;28;20717;-56
2022/08/10 08:10:53;;;;;;;3.13;1.80;;;29.40;32.70;;;;;;5054143;28;20285;-55
2022/08/10 08:13:20;;;;;;;2.08;1.75;;;29.30;32.80;;;;;;5052655;28;20225;-55
2022/08/10 08:15:48;;;;;;;3.25;1.98;;;29.30;32.20;;;;;;5053908;28;20272;-55
2022/08/10 08:18:16;;;;;;;3.30;1.90;;;29.40;32.40;;;;;;5053882;28;20193;-55
2022/08/10 08:20:44;;;;;;;3.42;1.83;;;29.30;32.60;;;;;;5053736;28;20218;-55
2022/08/10 08:23:12;;;;;;;2.85;1.85;;;29.30;32.80;;;;;;5054118;28;20654;-56
2022/08/10 08:25:39;;;;;;;3.22;1.75;;;29.40;32.90;;;;;;5053678;28;20221;-56
2022/08/10 08:28:07;;;;;;;7.50;1.88;;;29.40;32.40;;;;;;5052372;28;20199;-56
2022/08/10 08:30:34;;;;;;;2.85;1.60;;;29.50;32.40;;;;;;5052379;28;20552;-55
2022/08/10 08:33:01;;;;;;;4.40;2.03;;;29.50;32.80;;;;;;5053825;28;20217;-55
2022/08/10 08:35:29;;;;;;;2.10;1.65;;;29.50;33.10;;;;;;5052213;28;20228;-55
2022/08/10 08:37:56;;;;;;;3.15;1.90;;;29.60;32.40;;;;;;5053512;28;20269;-55
2022/08/10 08:40:24;;;;;;;2.67;1.80;;;29.70;31.80;;;;;;5052295;28;20639;-55
2022/08/10 08:43:16;;;;;;;2.13;1.80;;;29.80;32.00;;;;;;5053919;28;20277;-55
2022/08/10 08:45:52;;;;;;;2.70;1.75;;;29.90;31.90;;;;;;5053685;28;20207;-56
2022/08/10 08:48:46;;;;;;;4.07;1.88;;;29.90;31.90;;;;;;5052132;28;20633;-56
2022/08/10 08:51:18;;;;;;;5.22;1.75;;;29.90;31.80;;;;;;5052059;28;20198;-55
2022/08/10 08:53:58;;;;;;;3.55;1.80;;;29.90;31.80;;;;;;5053597;28;20199;-56
2022/08/10 08:56:28;;;;;;;3.13;1.70;;;29.90;31.60;;;;;;5051971;28;20325;-55
2022/08/10 08:59:07;;;;;;;2.85;1.80;;;29.90;31.80;;;;;;5051958;28;20226;-56
2022/08/10 09:01:53;;;;;;;3.45;1.70;;;30.00;31.80;;;;;;5051747;28;20194;-55
2022/08/10 09:04:28;;;;;;;4.28;1.98;;;30.00;31.50;;;;;;5051950;28;20249;-55
2022/08/10 09:07:12;;;;;;;2.08;1.90;;;30.00;31.00;;;;;;5053148;28;20261;-55
2022/08/10 09:09:51;;;;;;;3.35;1.80;;;30.00;31.10;;;;;;5051852;28;20210;-55
2022/08/10 09:12:22;;;;;;;4.05;1.80;;;30.00;30.90;;;;;;5053417;28;20179;-55
2022/08/10 09:14:51;;;;;;;2.75;1.63;;;29.90;29.80;;;;;;5053042;28;20206;-55
2022/08/10 09:17:23;;;;;;;2.38;1.60;;;29.80;29.50;;;;;;5053074;28;20344;-55
2022/08/10 09:19:54;;;;;;;2.72;1.60;;;29.80;29.90;;;;;;5053198;28;20281;-55
2022/08/10 09:22:25;;;;;;;1.92;1.63;;;29.80;29.90;;;;;;5051702;28;20186;-55
2022/08/10 09:24:56;;;;;;;1.98;1.60;;;29.80;30.00;;;;;;5053220;28;20211;-55
2022/08/10 09:27:26;;;;;;;3.22;1.70;;;29.90;30.00;;;;;;5053272;28;20174;-55
2022/08/10 09:29:54;;;;;;;2.00;1.90;;;30.10;30.30;;;;;;5053245;28;20199;-55
2022/08/10 09:32:29;;;;;;;2.58;1.80;;;30.10;30.20;;;;;;5051544;28;20195;-57
2022/08/10 09:35:01;;;;;;;3.92;1.88;;;30.20;30.00;;;;;;5052843;28;20285;-56
2022/08/10 09:37:35;;;;;;;3.08;1.80;;;30.20;30.00;;;;;;5051624;28;20202;-56
2022/08/10 09:40:08;;;;;;;2.53;1.83;;;30.20;30.30;;;;;;5053040;28;20182;-56
2022/08/10 09:42:39;;;;;;;1.90;1.60;;;30.20;30.60;;;;;;5053409;28;20182;-55
2022/08/10 09:45:10;;;;;;;3.70;1.92;;;30.20;30.70;;;;;;5053131;28;20272;-54
2022/08/10 09:47:48;;;;;;;2.00;1.67;;;30.20;30.90;;;;;;5053084;28;20194;-54
2022/08/10 09:50:20;;;;;;;5.10;1.60;;;30.20;31.10;;;;;;5053037;28;20692;-54
2022/08/10 09:52:55;;;;;;;1.60;1.50;;;30.20;31.20;;;;;;5052667;28;20218;-54
2022/08/10 09:55:26;;;;;;;1.85;1.70;;;30.20;31.20;;;;;;5051601;28;20222;-55
2022/08/10 09:57:58;;;;;;;2.22;1.50;;;30.30;31.40;;;;;;5052697;28;20588;-54
2022/08/10 10:00:30;;;;;;;1.70;1.50;;;30.30;31.40;;;;;;5051466;28;20191;-54
2022/08/10 10:03:05;;;;;;;1.80;1.67;;;30.20;31.40;;;;;;5052950;28;20610;-54
2022/08/10 10:05:36;;;;;;;2.75;1.70;;;30.20;31.40;;;;;;5051497;28;20217;-55
2022/08/10 10:08:09;;;;;;;3.00;1.90;;;30.20;31.60;;;;;;5052826;28;20193;-55
2022/08/10 10:10:41;;;;;;;1.60;1.50;;;30.10;31.70;;;;;;5051556;28;20195;-55
2022/08/10 10:13:10;;;;;;;2.25;1.60;;;30.10;31.90;;;;;;5056225;28;20244;-54
2022/08/10 10:15:41;;;;;;;1.55;1.45;;;30.00;32.00;;;;;;5054950;28;20229;-54
2022/08/10 10:18:21;;;;;;;2.55;1.73;;;30.00;32.20;;;;;;5055013;28;20666;-54
2022/08/10 10:20:53;;;;;;;1.70;1.60;;;29.90;32.30;;;;;;5056192;28;20639;-54
2022/08/10 10:23:39;;;;;;;1.98;1.77;;;29.90;32.30;;;;;;5056119;28;20636;-54
2022/08/10 10:26:10;;;;;;;2.00;1.60;;;29.80;32.60;;;;;;5056070;28;20809;-54
2022/08/10 10:28:40;;;;;;;1.70;1.60;;;29.70;33.50;;;;;;5056373;28;20596;-54
2022/08/10 10:31:11;;;;;;;1.60;1.50;;;29.60;32.80;;;;;;5055564;28;20202;-54
2022/08/10 10:33:46;;;;;;;1.60;1.50;;;29.60;32.90;;;;;;5055822;28;20217;-54
2022/08/10 10:36:14;;;;;;;1.60;1.50;;;29.50;33.10;;;;;;5056078;28;20213;-54
2022/08/10 10:38:43;;;;;;;1.65;1.40;;;29.50;33.40;;;;;;5055817;28;20710;-54
2022/08/10 10:41:14;;;;;;;1.88;1.60;;;29.50;33.30;;;;;;5055937;28;20683;-54
2022/08/10 10:43:47;;;;;;;2.10;1.70;;;29.50;34.10;;;;;;5055694;28;20194;-54
2022/08/10 10:46:22;;;;;;;1.60;1.50;;;29.40;33.60;;;;;;5055678;28;20556;-54
2022/08/10 10:48:55;;;;;;;2.50;1.50;;;29.40;33.80;;;;;;5055810;28;20178;-54
2022/08/10 10:51:33;;;;;;;2.42;1.55;;;29.30;33.80;;;;;;5056176;28;20593;-55
2022/08/10 10:54:08;;;;;;;1.65;1.40;;;29.20;34.00;;;;;;5054190;28;20238;-57
2022/08/10 10:56:39;;;;;;;2.28;1.60;;;29.20;34.30;;;;;;5054167;28;20222;-57
2022/08/10 10:59:11;;;;;;;1.60;1.50;;;29.00;34.70;;;;;;5055574;28;20183;-56
2022/08/10 11:01:41;;;;;;;1.65;1.50;;;28.90;35.20;;;;;;5055538;28;20180;-56
2022/08/10 11:04:15;;;;;;;2.13;1.50;;;28.90;35.20;;;;;;5055330;28;20561;-56
2022/08/10 11:06:49;;;;;;;2.88;1.63;;;29.00;35.20;;;;;;5053955;28;20318;-56
2022/08/10 11:09:21;;;;;;;1.95;1.50;;;29.00;34.90;;;;;;5055811;28;20175;-56
2022/08/10 11:11:48;;;;;;;2.05;1.60;;;29.00;34.70;;;;;;5055367;28;20238;-57
2022/08/10 11:14:18;;;;;;;2.25;1.48;;;28.90;34.80;;;;;;5053874;28;20206;-57
2022/08/10 11:16:47;;;;;;;1.67;1.58;;;29.00;34.80;;;;;;5054949;28;20214;-57
2022/08/10 11:19:18;;;;;;;1.52;1.42;;;29.00;34.60;;;;;;5054871;28;20190;-57
2022/08/10 11:21:57;;;;;;;2.38;1.42;;;28.90;34.30;;;;;;5055328;28;20190;-56
2022/08/10 11:24:32;;;;;;;2.38;1.48;;;28.90;34.30;;;;;;5054352;28;20205;-58
2022/08/10 11:27:08;;;;;;;1.80;1.70;;;28.90;34.30;;;;;;5054969;28;20265;-57
2022/08/10 11:29:37;;;;;;;1.60;1.38;;;28.90;34.20;;;;;;5055197;28;20211;-57
2022/08/10 11:32:06;;;;;;;3.40;1.75;;;28.80;33.80;;;;;;5055062;28;20191;-56
2022/08/10 11:34:36;;;;;;;1.80;1.52;;;28.90;34.20;;;;;;5053346;28;20656;-56
2022/08/10 11:37:14;;;;;;;2.08;1.52;;;28.90;34.20;;;;;;5054963;28;20579;-56
2022/08/10 11:39:45;;;;;;;2.13;1.50;;;28.80;34.10;;;;;;5053398;28;20584;-55
2022/08/10 11:42:19;;;;;;;1.60;1.50;;;28.80;34.10;;;;;;5054711;28;20241;-56
2022/08/10 11:44:47;;;;;;;2.10;1.70;;;28.80;34.30;;;;;;5053307;28;20215;-56
2022/08/10 11:47:17;;;;;;;2.22;1.42;;;28.80;34.50;;;;;;5055128;28;20194;-56
2022/08/10 11:49:46;;;;;;;1.75;1.60;;;28.80;34.60;;;;;;5053194;28;20203;-56
2022/08/10 11:52:15;;;;;;;2.38;1.65;;;28.70;34.50;;;;;;5054482;28;20561;-56
2022/08/10 11:54:47;;;;;;;2.33;1.60;;;28.70;34.50;;;;;;5054226;28;20276;-56
2022/08/10 11:57:14;;;;;;;3.08;1.60;;;28.70;34.50;;;;;;5053074;28;20186;-56
2022/08/10 11:59:55;;;;;;;1.80;1.65;;;28.70;34.70;;;;;;5053032;28;20195;-62
2022/08/10 12:02:24;;;;;;;2.33;1.40;;;28.70;35.00;;;;;;5054549;28;20190;-59
2022/08/10 12:04:53;;;;;;;3.65;1.50;;;28.60;34.80;;;;;;5054144;28;20207;-57
2022/08/10 12:07:21;;;;;;;1.60;1.48;;;28.60;34.90;;;;;;5054290;28;20195;-56
2022/08/10 12:09:50;;;;;;;2.45;1.50;;;28.60;34.60;;;;;;5052908;28;20213;-57
2022/08/10 12:12:17;;;;;;;2.13;1.55;;;28.60;35.00;;;;;;5054134;28;20190;-58
2022/08/10 12:14:48;;;;;;;1.95;1.52;;;28.60;35.80;;;;;;5054111;28;20712;-57
2022/08/10 12:17:16;;;;;;;2.45;1.48;;;28.50;35.20;;;;;;5054623;28;20179;-56
2022/08/10 12:19:45;;;;;;;1.55;1.45;;;28.50;35.10;;;;;;5052629;28;20289;-56
2022/08/10 12:22:14;;;;;;;1.98;1.58;;;28.50;35.10;;;;;;5052729;28;20226;-56
2022/08/10 12:24:45;;;;;;;2.58;1.60;;;28.50;35.30;;;;;;5054020;28;20235;-56
2022/08/10 12:27:18;;;;;;;1.48;1.38;;;28.50;35.30;;;;;;5053754;28;20565;-57
2022/08/10 12:29:47;;;;;;;2.83;1.60;;;28.40;35.10;;;;;;5054018;28;20179;-57
2022/08/10 12:32:19;;;;;;;1.73;1.63;;;28.50;35.30;;;;;;5052494;28;20241;-57
2022/08/10 12:34:49;;;;;;;1.60;1.45;;;28.40;35.10;;;;;;5052954;28;20211;-56
2022/08/10 12:37:20;;;;;;;1.70;1.60;;;28.40;35.00;;;;;;5052332;28;20717;-55
2022/08/10 12:39:52;;;;;;;2.15;1.40;;;28.40;34.90;;;;;;5052401;28;20187;-55
2022/08/10 12:42:25;;;;;;;1.60;1.50;;;28.40;35.20;;;;;;5053896;28;20655;-56
2022/08/10 12:44:54;;;;;;;2.55;1.50;;;28.30;35.00;;;;;;5053530;28;20207;-58
2022/08/10 12:47:25;;;;;;;2.97;1.70;;;28.30;35.10;;;;;;5052214;28;20190;-55
2022/08/10 12:49:54;;;;;;;1.52;1.42;;;28.30;35.30;;;;;;5053719;28;20201;-55
2022/08/10 12:52:29;;;;;;;2.10;1.42;;;28.20;35.30;;;;;;5052121;28;20329;-55
2022/08/10 12:54:57;;;;;;;2.17;1.80;;;28.20;34.90;;;;;;5052038;28;20229;-55
2022/08/10 12:57:25;;;;;;;2.03;1.40;;;28.20;34.60;;;;;;5052191;28;20230;-55
2022/08/10 12:59:57;;;;;;;1.88;1.50;;;28.20;34.70;;;;;;5052174;28;20195;-55
2022/08/10 13:02:26;;;;;;;2.58;1.70;;;28.10;34.60;;;;;;5052022;28;20668;-55
2022/08/10 13:04:54;;;;;;;2.38;1.60;;;28.10;34.70;;;;;;5053141;28;20213;-55
2022/08/10 13:07:24;;;;;;;1.63;1.50;;;28.10;34.60;;;;;;5051955;28;20198;-55